sensor_id;sensor_type;location;lat;lon;timestamp;P1;durP1;ratioP1;P2;durP2;ratioP2
36353;SDS011;22383;51.114;13.666;2022-11-25T00:01:29;2.58;;;1.38;;
36353;SDS011;22383;51.114;13.666;2022-11-25T00:03:58;0.88;;;0.60;;
36353;SDS011;22383;51.114;13.666;2022-11-25T00:06:28;1.35;;;1.25;;
36353;SDS011;22383;51.114;13.666;2022-11-25T00:11:29;0.75;;;0.75;;
36353;SDS011;22383;51.114;13.666;2022-11-25T00:13:57;1.02;;;0.90;;
36353;SDS011;22383;51.114;13.666;2022-11-25T00:16:24;0.50;;;0.40;;
36353;SDS011;22383;51.114;13.666;2022-11-25T00:21:25;0.60;;;0.60;;
36353;SDS011;22383;51.114;13.666;2022-11-25T00:23:56;2.15;;;1.10;;
36353;SDS011;22383;51.114;13.666;2022-11-25T00:26:34;1.95;;;1.05;;
36353;SDS011;22383;51.114;13.666;2022-11-25T00:29:04;1.63;;;1.52;;
36353;SDS011;22383;51.114;13.666;2022-11-25T00:31:36;0.77;;;0.77;;
36353;SDS011;22383;51.114;13.666;2022-11-25T00:34:05;0.85;;;0.85;;
36353;SDS011;22383;51.114;13.666;2022-11-25T00:36:34;0.95;;;0.85;;
36353;SDS011;22383;51.114;13.666;2022-11-25T00:39:04;0.32;;;0.32;;
36353;SDS011;22383;51.114;13.666;2022-11-25T00:41:36;0.88;;;0.88;;
36353;SDS011;22383;51.114;13.666;2022-11-25T00:44:22;1.40;;;1.02;;
36353;SDS011;22383;51.114;13.666;2022-11-25T00:47:07;0.82;;;0.82;;
36353;SDS011;22383;51.114;13.666;2022-11-25T00:49:36;0.20;;;0.20;;
36353;SDS011;22383;51.114;13.666;2022-11-25T00:52:04;1.02;;;1.02;;
36353;SDS011;22383;51.114;13.666;2022-11-25T00:54:33;1.60;;;1.25;;
36353;SDS011;22383;51.114;13.666;2022-11-25T00:57:02;0.20;;;0.20;;
36353;SDS011;22383;51.114;13.666;2022-11-25T00:59:29;1.27;;;0.65;;
36353;SDS011;22383;51.114;13.666;2022-11-25T01:01:58;1.05;;;0.82;;
36353;SDS011;22383;51.114;13.666;2022-11-25T01:04:26;0.93;;;0.80;;
36353;SDS011;22383;51.114;13.666;2022-11-25T01:06:54;10.38;;;0.88;;
36353;SDS011;22383;51.114;13.666;2022-11-25T01:09:22;3.83;;;1.88;;
36353;SDS011;22383;51.114;13.666;2022-11-25T01:11:50;1.85;;;1.75;;
36353;SDS011;22383;51.114;13.666;2022-11-25T01:14:19;1.65;;;1.08;;
36353;SDS011;22383;51.114;13.666;2022-11-25T01:16:47;0.98;;;0.90;;
36353;SDS011;22383;51.114;13.666;2022-11-25T01:19:16;0.63;;;0.55;;
36353;SDS011;22383;51.114;13.666;2022-11-25T01:21:44;0.20;;;0.20;;
36353;SDS011;22383;51.114;13.666;2022-11-25T01:24:12;0.45;;;0.45;;
36353;SDS011;22383;51.114;13.666;2022-11-25T01:26:41;0.40;;;0.30;;
36353;SDS011;22383;51.114;13.666;2022-11-25T01:29:14;7.03;;;0.68;;
36353;SDS011;22383;51.114;13.666;2022-11-25T01:31:43;0.50;;;0.50;;
36353;SDS011;22383;51.114;13.666;2022-11-25T01:34:13;1.17;;;0.68;;
36353;SDS011;22383;51.114;13.666;2022-11-25T01:36:48;1.63;;;0.95;;
36353;SDS011;22383;51.114;13.666;2022-11-25T01:39:20;0.40;;;0.40;;
36353;SDS011;22383;51.114;13.666;2022-11-25T01:41:57;1.10;;;0.60;;
36353;SDS011;22383;51.114;13.666;2022-11-25T01:44:26;0.30;;;0.30;;
36353;SDS011;22383;51.114;13.666;2022-11-25T01:49:39;0.60;;;0.60;;
36353;SDS011;22383;51.114;13.666;2022-11-25T01:52:27;1.45;;;1.17;;
36353;SDS011;22383;51.114;13.666;2022-11-25T01:55:01;0.30;;;0.30;;
36353;SDS011;22383;51.114;13.666;2022-11-25T01:57:47;0.20;;;0.20;;
36353;SDS011;22383;51.114;13.666;2022-11-25T02:00:24;0.52;;;0.52;;
36353;SDS011;22383;51.114;13.666;2022-11-25T02:02:52;0.90;;;0.90;;
36353;SDS011;22383;51.114;13.666;2022-11-25T02:05:24;0.75;;;0.75;;
36353;SDS011;22383;51.114;13.666;2022-11-25T02:08:00;1.27;;;1.17;;
36353;SDS011;22383;51.114;13.666;2022-11-25T02:10:28;2.83;;;1.65;;
36353;SDS011;22383;51.114;13.666;2022-11-25T02:12:58;1.25;;;1.10;;
36353;SDS011;22383;51.114;13.666;2022-11-25T02:17:55;0.95;;;0.82;;
36353;SDS011;22383;51.114;13.666;2022-11-25T02:20:23;2.38;;;1.02;;
36353;SDS011;22383;51.114;13.666;2022-11-25T02:25:45;1.08;;;1.08;;
36353;SDS011;22383;51.114;13.666;2022-11-25T02:28:23;1.90;;;1.55;;
36353;SDS011;22383;51.114;13.666;2022-11-25T02:30:52;0.55;;;0.55;;
36353;SDS011;22383;51.114;13.666;2022-11-25T02:33:21;0.90;;;0.90;;
36353;SDS011;22383;51.114;13.666;2022-11-25T02:38:29;1.02;;;1.02;;
36353;SDS011;22383;51.114;13.666;2022-11-25T02:41:16;1.55;;;1.40;;
36353;SDS011;22383;51.114;13.666;2022-11-25T02:43:56;1.77;;;1.20;;
36353;SDS011;22383;51.114;13.666;2022-11-25T02:46:25;2.00;;;1.13;;
36353;SDS011;22383;51.114;13.666;2022-11-25T02:48:54;4.95;;;2.20;;
36353;SDS011;22383;51.114;13.666;2022-11-25T02:51:42;0.80;;;0.80;;
36353;SDS011;22383;51.114;13.666;2022-11-25T02:54:12;0.55;;;0.55;;
36353;SDS011;22383;51.114;13.666;2022-11-25T02:56:42;0.40;;;0.40;;
36353;SDS011;22383;51.114;13.666;2022-11-25T02:59:10;2.67;;;1.33;;
36353;SDS011;22383;51.114;13.666;2022-11-25T03:01:38;4.68;;;0.88;;
36353;SDS011;22383;51.114;13.666;2022-11-25T03:04:08;2.38;;;1.55;;
36353;SDS011;22383;51.114;13.666;2022-11-25T03:06:37;5.32;;;1.50;;
36353;SDS011;22383;51.114;13.666;2022-11-25T03:09:06;0.77;;;0.77;;
36353;SDS011;22383;51.114;13.666;2022-11-25T03:11:37;1.02;;;0.95;;
36353;SDS011;22383;51.114;13.666;2022-11-25T03:14:23;0.63;;;0.63;;
36353;SDS011;22383;51.114;13.666;2022-11-25T03:16:51;3.20;;;1.20;;
36353;SDS011;22383;51.114;13.666;2022-11-25T03:19:28;0.55;;;0.55;;
36353;SDS011;22383;51.114;13.666;2022-11-25T03:26:26;1.10;;;0.93;;
36353;SDS011;22383;51.114;13.666;2022-11-25T03:30:03;0.40;;;0.40;;
36353;SDS011;22383;51.114;13.666;2022-11-25T03:32:43;0.75;;;0.68;;
36353;SDS011;22383;51.114;13.666;2022-11-25T03:35:12;0.88;;;0.88;;
36353;SDS011;22383;51.114;13.666;2022-11-25T03:37:42;2.08;;;1.73;;
36353;SDS011;22383;51.114;13.666;2022-11-25T03:40:11;0.32;;;0.32;;
36353;SDS011;22383;51.114;13.666;2022-11-25T03:42:40;0.60;;;0.60;;
36353;SDS011;22383;51.114;13.666;2022-11-25T03:45:09;0.30;;;0.30;;
36353;SDS011;22383;51.114;13.666;2022-11-25T03:47:44;1.20;;;0.88;;
36353;SDS011;22383;51.114;13.666;2022-11-25T03:50:12;0.50;;;0.50;;
36353;SDS011;22383;51.114;13.666;2022-11-25T03:52:41;0.73;;;0.73;;
36353;SDS011;22383;51.114;13.666;2022-11-25T03:55:09;0.70;;;0.70;;
36353;SDS011;22383;51.114;13.666;2022-11-25T03:57:41;1.08;;;0.50;;
36353;SDS011;22383;51.114;13.666;2022-11-25T04:00:09;0.93;;;0.90;;
36353;SDS011;22383;51.114;13.666;2022-11-25T04:02:52;0.25;;;0.25;;
36353;SDS011;22383;51.114;13.666;2022-11-25T04:07:48;0.65;;;0.52;;
36353;SDS011;22383;51.114;13.666;2022-11-25T04:10:23;0.75;;;0.52;;
36353;SDS011;22383;51.114;13.666;2022-11-25T04:12:52;0.77;;;0.77;;
36353;SDS011;22383;51.114;13.666;2022-11-25T04:15:30;1.35;;;1.25;;
36353;SDS011;22383;51.114;13.666;2022-11-25T04:20:26;0.40;;;0.40;;
36353;SDS011;22383;51.114;13.666;2022-11-25T04:23:01;1.10;;;1.10;;
36353;SDS011;22383;51.114;13.666;2022-11-25T04:25:31;0.50;;;0.50;;
36353;SDS011;22383;51.114;13.666;2022-11-25T04:27:59;2.63;;;1.10;;
36353;SDS011;22383;51.114;13.666;2022-11-25T04:30:31;0.28;;;0.28;;
36353;SDS011;22383;51.114;13.666;2022-11-25T04:33:00;0.82;;;0.82;;
36353;SDS011;22383;51.114;13.666;2022-11-25T04:35:28;0.40;;;0.40;;
36353;SDS011;22383;51.114;13.666;2022-11-25T04:37:56;0.95;;;0.77;;
36353;SDS011;22383;51.114;13.666;2022-11-25T04:40:25;0.30;;;0.30;;
36353;SDS011;22383;51.114;13.666;2022-11-25T04:45:48;1.48;;;0.98;;
36353;SDS011;22383;51.114;13.666;2022-11-25T04:48:38;2.65;;;0.80;;
36353;SDS011;22383;51.114;13.666;2022-11-25T04:51:05;0.77;;;0.77;;
36353;SDS011;22383;51.114;13.666;2022-11-25T04:53:32;1.98;;;1.08;;
36353;SDS011;22383;51.114;13.666;2022-11-25T04:56:00;2.20;;;0.77;;
36353;SDS011;22383;51.114;13.666;2022-11-25T04:58:33;0.63;;;0.63;;
36353;SDS011;22383;51.114;13.666;2022-11-25T05:01:18;1.75;;;0.80;;
36353;SDS011;22383;51.114;13.666;2022-11-25T05:03:49;0.40;;;0.40;;
36353;SDS011;22383;51.114;13.666;2022-11-25T05:06:23;0.68;;;0.68;;
36353;SDS011;22383;51.114;13.666;2022-11-25T05:08:51;0.82;;;0.80;;
36353;SDS011;22383;51.114;13.666;2022-11-25T05:11:21;0.93;;;0.70;;
36353;SDS011;22383;51.114;13.666;2022-11-25T05:13:50;0.80;;;0.80;;
36353;SDS011;22383;51.114;13.666;2022-11-25T05:16:18;3.00;;;1.00;;
36353;SDS011;22383;51.114;13.666;2022-11-25T05:18:46;1.77;;;0.98;;
36353;SDS011;22383;51.114;13.666;2022-11-25T05:21:13;0.40;;;0.40;;
36353;SDS011;22383;51.114;13.666;2022-11-25T05:23:44;0.85;;;0.82;;
36353;SDS011;22383;51.114;13.666;2022-11-25T05:26:14;1.10;;;0.68;;
36353;SDS011;22383;51.114;13.666;2022-11-25T05:28:45;0.30;;;0.30;;
36353;SDS011;22383;51.114;13.666;2022-11-25T05:31:13;0.77;;;0.77;;
36353;SDS011;22383;51.114;13.666;2022-11-25T05:35:01;0.63;;;0.63;;
36353;SDS011;22383;51.114;13.666;2022-11-25T05:37:29;1.35;;;1.17;;
36353;SDS011;22383;51.114;13.666;2022-11-25T05:40:04;1.45;;;1.05;;
36353;SDS011;22383;51.114;13.666;2022-11-25T05:42:31;1.23;;;0.80;;
36353;SDS011;22383;51.114;13.666;2022-11-25T05:45:03;0.93;;;0.93;;
36353;SDS011;22383;51.114;13.666;2022-11-25T05:47:33;1.10;;;1.05;;
36353;SDS011;22383;51.114;13.666;2022-11-25T05:50:01;1.02;;;0.93;;
36353;SDS011;22383;51.114;13.666;2022-11-25T05:52:31;1.02;;;1.02;;
36353;SDS011;22383;51.114;13.666;2022-11-25T05:55:00;1.17;;;1.17;;
36353;SDS011;22383;51.114;13.666;2022-11-25T05:57:28;3.50;;;1.00;;
36353;SDS011;22383;51.114;13.666;2022-11-25T06:00:03;0.40;;;0.40;;
36353;SDS011;22383;51.114;13.666;2022-11-25T06:02:40;2.70;;;0.75;;
36353;SDS011;22383;51.114;13.666;2022-11-25T06:05:11;13.52;;;0.93;;
36353;SDS011;22383;51.114;13.666;2022-11-25T06:10:11;4.25;;;0.82;;
36353;SDS011;22383;51.114;13.666;2022-11-25T06:12:40;22.63;;;2.25;;
36353;SDS011;22383;51.114;13.666;2022-11-25T06:17:37;0.50;;;0.50;;
36353;SDS011;22383;51.114;13.666;2022-11-25T06:22:53;0.38;;;0.38;;
36353;SDS011;22383;51.114;13.666;2022-11-25T06:25:26;1.17;;;1.08;;
36353;SDS011;22383;51.114;13.666;2022-11-25T06:27:55;1.30;;;1.20;;
36353;SDS011;22383;51.114;13.666;2022-11-25T06:30:43;1.73;;;1.40;;
36353;SDS011;22383;51.114;13.666;2022-11-25T06:33:34;1.45;;;1.38;;
36353;SDS011;22383;51.114;13.666;2022-11-25T06:36:05;0.50;;;0.50;;
36353;SDS011;22383;51.114;13.666;2022-11-25T06:38:35;1.77;;;1.67;;
36353;SDS011;22383;51.114;13.666;2022-11-25T06:41:03;2.60;;;2.30;;
36353;SDS011;22383;51.114;13.666;2022-11-25T06:43:32;0.75;;;0.70;;
36353;SDS011;22383;51.114;13.666;2022-11-25T06:46:00;1.23;;;1.10;;
36353;SDS011;22383;51.114;13.666;2022-11-25T06:48:29;0.60;;;0.60;;
36353;SDS011;22383;51.114;13.666;2022-11-25T06:50:58;1.90;;;1.42;;
36353;SDS011;22383;51.114;13.666;2022-11-25T06:53:27;0.85;;;0.85;;
36353;SDS011;22383;51.114;13.666;2022-11-25T06:58:37;2.58;;;2.00;;
36353;SDS011;22383;51.114;13.666;2022-11-25T07:03:43;0.82;;;0.82;;
36353;SDS011;22383;51.114;13.666;2022-11-25T07:06:12;0.50;;;0.50;;
36353;SDS011;22383;51.114;13.666;2022-11-25T07:08:41;1.25;;;1.15;;
36353;SDS011;22383;51.114;13.666;2022-11-25T07:13:49;10.63;;;2.75;;
36353;SDS011;22383;51.114;13.666;2022-11-25T07:16:22;0.38;;;0.35;;
36353;SDS011;22383;51.114;13.666;2022-11-25T07:18:50;1.02;;;1.02;;
36353;SDS011;22383;51.114;13.666;2022-11-25T07:21:19;1.27;;;1.25;;
36353;SDS011;22383;51.114;13.666;2022-11-25T07:23:49;1.00;;;1.00;;
36353;SDS011;22383;51.114;13.666;2022-11-25T07:28:48;2.20;;;1.60;;
36353;SDS011;22383;51.114;13.666;2022-11-25T07:31:19;3.30;;;3.05;;
36353;SDS011;22383;51.114;13.666;2022-11-25T07:33:51;0.70;;;0.70;;
36353;SDS011;22383;51.114;13.666;2022-11-25T07:36:28;3.15;;;2.85;;
36353;SDS011;22383;51.114;13.666;2022-11-25T07:38:56;2.22;;;1.88;;
36353;SDS011;22383;51.114;13.666;2022-11-25T07:41:26;0.60;;;0.60;;
36353;SDS011;22383;51.114;13.666;2022-11-25T07:44:00;1.55;;;1.42;;
36353;SDS011;22383;51.114;13.666;2022-11-25T07:46:31;1.38;;;1.10;;
36353;SDS011;22383;51.114;13.666;2022-11-25T07:49:02;2.33;;;1.85;;
36353;SDS011;22383;51.114;13.666;2022-11-25T07:51:33;0.63;;;0.63;;
36353;SDS011;22383;51.114;13.666;2022-11-25T07:54:02;1.50;;;1.40;;
36353;SDS011;22383;51.114;13.666;2022-11-25T07:56:32;0.85;;;0.75;;
36353;SDS011;22383;51.114;13.666;2022-11-25T07:59:01;1.95;;;1.38;;
36353;SDS011;22383;51.114;13.666;2022-11-25T08:01:29;2.03;;;1.92;;
36353;SDS011;22383;51.114;13.666;2022-11-25T08:03:57;0.90;;;0.90;;
36353;SDS011;22383;51.114;13.666;2022-11-25T08:08:54;0.45;;;0.43;;
36353;SDS011;22383;51.114;13.666;2022-11-25T08:11:26;1.45;;;1.35;;
36353;SDS011;22383;51.114;13.666;2022-11-25T08:13:55;1.45;;;1.35;;
36353;SDS011;22383;51.114;13.666;2022-11-25T08:16:24;0.65;;;0.65;;
36353;SDS011;22383;51.114;13.666;2022-11-25T08:18:54;3.55;;;1.85;;
36353;SDS011;22383;51.114;13.666;2022-11-25T08:21:22;2.10;;;1.20;;
36353;SDS011;22383;51.114;13.666;2022-11-25T08:23:51;2.70;;;2.40;;
36353;SDS011;22383;51.114;13.666;2022-11-25T08:28:56;1.35;;;0.85;;
36353;SDS011;22383;51.114;13.666;2022-11-25T08:31:34;0.47;;;0.47;;
36353;SDS011;22383;51.114;13.666;2022-11-25T08:34:04;1.83;;;1.17;;
36353;SDS011;22383;51.114;13.666;2022-11-25T08:36:33;0.77;;;0.77;;
36353;SDS011;22383;51.114;13.666;2022-11-25T08:39:05;0.40;;;0.40;;
36353;SDS011;22383;51.114;13.666;2022-11-25T08:41:53;5.53;;;0.70;;
36353;SDS011;22383;51.114;13.666;2022-11-25T08:44:20;3.17;;;0.50;;
36353;SDS011;22383;51.114;13.666;2022-11-25T08:46:48;1.55;;;1.10;;
36353;SDS011;22383;51.114;13.666;2022-11-25T08:49:16;1.23;;;1.23;;
36353;SDS011;22383;51.114;13.666;2022-11-25T08:51:45;1.70;;;1.20;;
36353;SDS011;22383;51.114;13.666;2022-11-25T08:54:12;0.50;;;0.50;;
36353;SDS011;22383;51.114;13.666;2022-11-25T08:56:40;8.75;;;1.60;;
36353;SDS011;22383;51.114;13.666;2022-11-25T08:59:07;2.55;;;1.67;;
36353;SDS011;22383;51.114;13.666;2022-11-25T09:01:35;5.40;;;3.55;;
36353;SDS011;22383;51.114;13.666;2022-11-25T09:04:03;1.83;;;0.82;;
36353;SDS011;22383;51.114;13.666;2022-11-25T09:06:30;4.32;;;1.50;;
36353;SDS011;22383;51.114;13.666;2022-11-25T09:11:27;1.13;;;0.82;;
36353;SDS011;22383;51.114;13.666;2022-11-25T09:13:55;1.92;;;1.83;;
36353;SDS011;22383;51.114;13.666;2022-11-25T09:16:22;9.13;;;1.00;;
36353;SDS011;22383;51.114;13.666;2022-11-25T09:18:53;4.10;;;2.78;;
36353;SDS011;22383;51.114;13.666;2022-11-25T09:21:22;5.70;;;3.25;;
36353;SDS011;22383;51.114;13.666;2022-11-25T09:23:52;4.00;;;1.45;;
36353;SDS011;22383;51.114;13.666;2022-11-25T09:26:27;1.85;;;1.70;;
36353;SDS011;22383;51.114;13.666;2022-11-25T09:28:58;3.05;;;1.60;;
36353;SDS011;22383;51.114;13.666;2022-11-25T09:31:25;1.80;;;1.67;;
36353;SDS011;22383;51.114;13.666;2022-11-25T09:33:54;1.05;;;1.05;;
36353;SDS011;22383;51.114;13.666;2022-11-25T09:36:22;1.35;;;1.25;;
36353;SDS011;22383;51.114;13.666;2022-11-25T09:38:51;3.42;;;3.13;;
36353;SDS011;22383;51.114;13.666;2022-11-25T09:41:26;1.33;;;1.23;;
36353;SDS011;22383;51.114;13.666;2022-11-25T09:47:26;1.80;;;1.38;;
36353;SDS011;22383;51.114;13.666;2022-11-25T09:50:16;0.77;;;0.77;;
36353;SDS011;22383;51.114;13.666;2022-11-25T09:53:01;1.58;;;1.15;;
36353;SDS011;22383;51.114;13.666;2022-11-25T09:55:44;4.07;;;2.53;;
36353;SDS011;22383;51.114;13.666;2022-11-25T09:58:35;3.13;;;1.80;;
36353;SDS011;22383;51.114;13.666;2022-11-25T10:01:11;0.75;;;0.75;;
36353;SDS011;22383;51.114;13.666;2022-11-25T10:03:44;1.20;;;1.13;;
36353;SDS011;22383;51.114;13.666;2022-11-25T10:06:39;3.60;;;1.75;;
36353;SDS011;22383;51.114;13.666;2022-11-25T10:09:18;1.48;;;1.08;;
36353;SDS011;22383;51.114;13.666;2022-11-25T10:11:52;2.78;;;2.47;;
36353;SDS011;22383;51.114;13.666;2022-11-25T10:14:30;1.77;;;1.65;;
36353;SDS011;22383;51.114;13.666;2022-11-25T10:19:56;4.72;;;1.02;;
36353;SDS011;22383;51.114;13.666;2022-11-25T10:22:45;1.30;;;0.80;;
36353;SDS011;22383;51.114;13.666;2022-11-25T10:25:20;1.60;;;1.23;;
36353;SDS011;22383;51.114;13.666;2022-11-25T10:27:58;2.75;;;1.73;;
36353;SDS011;22383;51.114;13.666;2022-11-25T10:30:43;5.05;;;2.50;;
36353;SDS011;22383;51.114;13.666;2022-11-25T10:33:18;3.80;;;1.58;;
36353;SDS011;22383;51.114;13.666;2022-11-25T10:35:54;1.10;;;1.00;;
36353;SDS011;22383;51.114;13.666;2022-11-25T10:38:33;0.32;;;0.32;;
36353;SDS011;22383;51.114;13.666;2022-11-25T10:41:09;2.60;;;1.33;;
36353;SDS011;22383;51.114;13.666;2022-11-25T10:43:42;5.55;;;2.50;;
36353;SDS011;22383;51.114;13.666;2022-11-25T10:49:00;1.38;;;1.05;;
36353;SDS011;22383;51.114;13.666;2022-11-25T10:51:46;4.25;;;1.23;;
36353;SDS011;22383;51.114;13.666;2022-11-25T10:54:19;3.53;;;1.05;;
36353;SDS011;22383;51.114;13.666;2022-11-25T10:56:58;6.20;;;1.70;;
36353;SDS011;22383;51.114;13.666;2022-11-25T10:59:34;1.15;;;1.05;;
36353;SDS011;22383;51.114;13.666;2022-11-25T11:02:24;0.47;;;0.47;;
36353;SDS011;22383;51.114;13.666;2022-11-25T11:05:04;0.80;;;0.60;;
36353;SDS011;22383;51.114;13.666;2022-11-25T11:07:45;0.55;;;0.55;;
36353;SDS011;22383;51.114;13.666;2022-11-25T11:20:55;0.80;;;0.80;;
36353;SDS011;22383;51.114;13.666;2022-11-25T11:23:25;11.32;;;1.05;;
36353;SDS011;22383;51.114;13.666;2022-11-25T11:25:56;3.50;;;2.17;;
36353;SDS011;22383;51.114;13.666;2022-11-25T11:31:04;1.55;;;1.02;;
36353;SDS011;22383;51.114;13.666;2022-11-25T11:39:23;2.28;;;0.85;;
36353;SDS011;22383;51.114;13.666;2022-11-25T11:41:58;1.73;;;1.13;;
36353;SDS011;22383;51.114;13.666;2022-11-25T11:52:04;2.47;;;2.05;;
36353;SDS011;22383;51.114;13.666;2022-11-25T11:54:36;6.22;;;1.75;;
36353;SDS011;22383;51.114;13.666;2022-11-25T11:59:54;1.45;;;1.00;;
36353;SDS011;22383;51.114;13.666;2022-11-25T12:05:23;1.58;;;1.27;;
36353;SDS011;22383;51.114;13.666;2022-11-25T12:10:29;1.85;;;1.10;;
36353;SDS011;22383;51.114;13.666;2022-11-25T12:13:20;1.30;;;1.15;;
36353;SDS011;22383;51.114;13.666;2022-11-25T12:22:03;3.00;;;2.00;;
36353;SDS011;22383;51.114;13.666;2022-11-25T12:24:50;1.27;;;1.17;;
36353;SDS011;22383;51.114;13.666;2022-11-25T12:27:34;2.83;;;1.35;;
36353;SDS011;22383;51.114;13.666;2022-11-25T12:35:35;1.13;;;0.65;;
36353;SDS011;22383;51.114;13.666;2022-11-25T12:43:50;1.08;;;0.82;;
36353;SDS011;22383;51.114;13.666;2022-11-25T12:59:23;4.70;;;2.03;;
36353;SDS011;22383;51.114;13.666;2022-11-25T13:05:29;2.30;;;1.38;;
36353;SDS011;22383;51.114;13.666;2022-11-25T13:16:05;2.67;;;2.35;;
36353;SDS011;22383;51.114;13.666;2022-11-25T13:18:37;2.95;;;2.05;;
36353;SDS011;22383;51.114;13.666;2022-11-25T13:21:11;1.27;;;1.17;;
36353;SDS011;22383;51.114;13.666;2022-11-25T13:23:53;2.95;;;1.58;;
36353;SDS011;22383;51.114;13.666;2022-11-25T13:29:01;3.80;;;1.75;;
36353;SDS011;22383;51.114;13.666;2022-11-25T13:31:59;13.90;;;2.17;;
36353;SDS011;22383;51.114;13.666;2022-11-25T13:34:29;2.85;;;2.15;;
36353;SDS011;22383;51.114;13.666;2022-11-25T13:36:59;1.10;;;0.90;;
36353;SDS011;22383;51.114;13.666;2022-11-25T13:39:32;6.55;;;2.35;;
36353;SDS011;22383;51.114;13.666;2022-11-25T13:44:54;1.40;;;1.30;;
36353;SDS011;22383;51.114;13.666;2022-11-25T13:47:29;6.82;;;1.85;;
36353;SDS011;22383;51.114;13.666;2022-11-25T13:50:06;1.58;;;1.48;;
36353;SDS011;22383;51.114;13.666;2022-11-25T13:53:00;1.17;;;0.88;;
36353;SDS011;22383;51.114;13.666;2022-11-25T13:55:32;1.75;;;1.65;;
36353;SDS011;22383;51.114;13.666;2022-11-25T13:58:04;1.45;;;1.35;;
36353;SDS011;22383;51.114;13.666;2022-11-25T14:08:29;1.23;;;1.02;;
36353;SDS011;22383;51.114;13.666;2022-11-25T14:24:33;2.03;;;1.83;;
36353;SDS011;22383;51.114;13.666;2022-11-25T14:27:10;4.75;;;2.35;;
36353;SDS011;22383;51.114;13.666;2022-11-25T14:29:41;3.83;;;2.35;;
36353;SDS011;22383;51.114;13.666;2022-11-25T14:32:21;2.42;;;2.22;;
36353;SDS011;22383;51.114;13.666;2022-11-25T14:38:00;4.05;;;2.63;;
36353;SDS011;22383;51.114;13.666;2022-11-25T14:40:35;5.30;;;4.70;;
36353;SDS011;22383;51.114;13.666;2022-11-25T14:43:12;7.43;;;6.05;;
36353;SDS011;22383;51.114;13.666;2022-11-25T14:45:44;9.05;;;6.70;;
36353;SDS011;22383;51.114;13.666;2022-11-25T14:48:15;14.75;;;6.75;;
36353;SDS011;22383;51.114;13.666;2022-11-25T14:51:01;4.50;;;3.13;;
36353;SDS011;22383;51.114;13.666;2022-11-25T14:56:15;4.72;;;4.30;;
36353;SDS011;22383;51.114;13.666;2022-11-25T14:58:49;15.60;;;8.07;;
36353;SDS011;22383;51.114;13.666;2022-11-25T15:01:20;7.63;;;4.45;;
36353;SDS011;22383;51.114;13.666;2022-11-25T15:03:48;8.07;;;3.10;;
36353;SDS011;22383;51.114;13.666;2022-11-25T15:06:17;8.23;;;3.88;;
36353;SDS011;22383;51.114;13.666;2022-11-25T15:08:55;11.05;;;3.92;;
36353;SDS011;22383;51.114;13.666;2022-11-25T15:11:25;4.53;;;3.65;;
36353;SDS011;22383;51.114;13.666;2022-11-25T15:13:59;1.88;;;1.75;;
36353;SDS011;22383;51.114;13.666;2022-11-25T15:16:33;2.33;;;2.13;;
36353;SDS011;22383;51.114;13.666;2022-11-25T15:19:04;2.55;;;1.52;;
36353;SDS011;22383;51.114;13.666;2022-11-25T15:21:39;2.08;;;1.85;;
36353;SDS011;22383;51.114;13.666;2022-11-25T15:24:31;1.38;;;1.13;;
36353;SDS011;22383;51.114;13.666;2022-11-25T15:27:25;3.92;;;2.95;;
36353;SDS011;22383;51.114;13.666;2022-11-25T15:29:55;3.10;;;2.58;;
36353;SDS011;22383;51.114;13.666;2022-11-25T15:32:24;6.63;;;3.63;;
36353;SDS011;22383;51.114;13.666;2022-11-25T15:34:55;13.27;;;6.28;;
36353;SDS011;22383;51.114;13.666;2022-11-25T15:37:24;1.70;;;1.60;;
36353;SDS011;22383;51.114;13.666;2022-11-25T15:40:39;1.90;;;1.80;;
36353;SDS011;22383;51.114;13.666;2022-11-25T15:42:59;2.30;;;2.08;;
36353;SDS011;22383;51.114;13.666;2022-11-25T15:46:04;8.98;;;4.63;;
36353;SDS011;22383;51.114;13.666;2022-11-25T15:48:32;6.90;;;2.28;;
36353;SDS011;22383;51.114;13.666;2022-11-25T15:51:06;5.25;;;3.10;;
36353;SDS011;22383;51.114;13.666;2022-11-25T15:53:45;3.38;;;2.90;;
36353;SDS011;22383;51.114;13.666;2022-11-25T15:56:20;6.22;;;3.13;;
36353;SDS011;22383;51.114;13.666;2022-11-25T15:58:52;7.90;;;3.92;;
36353;SDS011;22383;51.114;13.666;2022-11-25T16:01:27;3.58;;;3.28;;
36353;SDS011;22383;51.114;13.666;2022-11-25T16:04:09;13.52;;;5.28;;
36353;SDS011;22383;51.114;13.666;2022-11-25T16:06:57;3.95;;;2.83;;
36353;SDS011;22383;51.114;13.666;2022-11-25T16:09:28;5.43;;;3.58;;
36353;SDS011;22383;51.114;13.666;2022-11-25T16:12:04;4.93;;;3.10;;
36353;SDS011;22383;51.114;13.666;2022-11-25T16:14:33;6.05;;;4.70;;
36353;SDS011;22383;51.114;13.666;2022-11-25T16:17:10;6.93;;;3.55;;
36353;SDS011;22383;51.114;13.666;2022-11-25T16:19:42;3.35;;;3.05;;
36353;SDS011;22383;51.114;13.666;2022-11-25T16:22:17;5.03;;;4.72;;
36353;SDS011;22383;51.114;13.666;2022-11-25T16:24:51;8.10;;;5.97;;
36353;SDS011;22383;51.114;13.666;2022-11-25T16:27:29;6.03;;;3.75;;
36353;SDS011;22383;51.114;13.666;2022-11-25T16:30:15;2.65;;;2.45;;
36353;SDS011;22383;51.114;13.666;2022-11-25T16:32:45;8.85;;;3.97;;
36353;SDS011;22383;51.114;13.666;2022-11-25T16:37:42;3.70;;;3.38;;
36353;SDS011;22383;51.114;13.666;2022-11-25T16:40:15;3.38;;;2.38;;
36353;SDS011;22383;51.114;13.666;2022-11-25T16:42:47;42.85;;;2.45;;
36353;SDS011;22383;51.114;13.666;2022-11-25T16:45:23;1.92;;;1.83;;
36353;SDS011;22383;51.114;13.666;2022-11-25T16:47:52;8.73;;;3.72;;
36353;SDS011;22383;51.114;13.666;2022-11-25T16:50:20;5.30;;;3.47;;
36353;SDS011;22383;51.114;13.666;2022-11-25T16:52:48;13.32;;;3.83;;
36353;SDS011;22383;51.114;13.666;2022-11-25T16:55:16;1.90;;;1.60;;
36353;SDS011;22383;51.114;13.666;2022-11-25T16:57:44;2.80;;;2.58;;
36353;SDS011;22383;51.114;13.666;2022-11-25T17:00:14;8.43;;;3.65;;
36353;SDS011;22383;51.114;13.666;2022-11-25T17:02:43;2.33;;;1.90;;
36353;SDS011;22383;51.114;13.666;2022-11-25T17:07:46;7.00;;;2.58;;
36353;SDS011;22383;51.114;13.666;2022-11-25T17:10:14;13.35;;;3.53;;
36353;SDS011;22383;51.114;13.666;2022-11-25T17:12:42;5.47;;;3.95;;
36353;SDS011;22383;51.114;13.666;2022-11-25T17:15:12;5.00;;;2.42;;
36353;SDS011;22383;51.114;13.666;2022-11-25T17:17:43;8.82;;;5.32;;
36353;SDS011;22383;51.114;13.666;2022-11-25T17:20:14;6.72;;;6.03;;
36353;SDS011;22383;51.114;13.666;2022-11-25T17:22:48;5.53;;;2.40;;
36353;SDS011;22383;51.114;13.666;2022-11-25T17:25:16;4.20;;;2.85;;
36353;SDS011;22383;51.114;13.666;2022-11-25T17:30:16;3.42;;;3.10;;
36353;SDS011;22383;51.114;13.666;2022-11-25T17:32:47;3.42;;;3.13;;
36353;SDS011;22383;51.114;13.666;2022-11-25T17:35:22;5.10;;;2.55;;
36353;SDS011;22383;51.114;13.666;2022-11-25T17:37:49;13.45;;;2.38;;
36353;SDS011;22383;51.114;13.666;2022-11-25T17:40:17;2.30;;;2.10;;
36353;SDS011;22383;51.114;13.666;2022-11-25T17:42:45;2.35;;;1.75;;
36353;SDS011;22383;51.114;13.666;2022-11-25T17:45:15;7.63;;;2.75;;
36353;SDS011;22383;51.114;13.666;2022-11-25T17:47:45;8.65;;;2.80;;
36353;SDS011;22383;51.114;13.666;2022-11-25T17:50:21;2.42;;;2.33;;
36353;SDS011;22383;51.114;13.666;2022-11-25T17:52:50;2.35;;;1.65;;
36353;SDS011;22383;51.114;13.666;2022-11-25T17:55:18;5.00;;;4.55;;
36353;SDS011;22383;51.114;13.666;2022-11-25T17:57:48;3.05;;;2.83;;
36353;SDS011;22383;51.114;13.666;2022-11-25T18:08:11;0.80;;;0.80;;
36353;SDS011;22383;51.114;13.666;2022-11-25T18:10:39;2.92;;;1.92;;
36353;SDS011;22383;51.114;13.666;2022-11-25T18:13:06;3.65;;;1.90;;
36353;SDS011;22383;51.114;13.666;2022-11-25T18:15:33;3.85;;;3.30;;